Time;durP1;ratioP1;P1;durP2;ratioP2;P2;SDS_P1;SDS_P2;PMS_P1;PMS_P2;Temp;Humidity;BMP_temperature;BMP_pressure;BME280_temperature;BME280_humidity;BME280_pressure;Samples;Min_cycle;Max_cycle;Signal;HPM_P1;HPM_P2
2022/03/19 00:05:22;1004063.00;3.35;1739.67;0.00;0.00;0.62;;;;;6.50;6.20;;;;;;2261827;61;1374;-87
2022/03/19 00:17:43;919351.00;3.06;1590.13;0.00;0.00;0.62;;;;;6.90;2.60;;;;;;2262554;61;1354;-88
2022/03/19 00:22:47;837246.00;2.79;1446.16;33637.00;0.11;58.88;;;;;6.80;1.40;;;;;;2264893;56;1845;-87
2022/03/19 00:25:14;655142.00;2.18;1129.53;0.00;0.00;0.62;;;;;6.60;3.90;;;;;;2263950;61;1511;-88
2022/03/19 00:27:41;485406.00;1.62;836.70;0.00;0.00;0.62;;;;;6.60;4.20;;;;;;2264376;61;1654;-87
2022/03/19 00:30:09;285488.00;0.95;492.97;0.00;0.00;0.62;;;;;6.60;4.90;;;;;;2264514;61;1451;-87
2022/03/19 00:32:36;544611.00;1.82;938.67;62157.00;0.21;108.21;;;;;6.60;3.80;;;;;;2266395;55;3757;-87
2022/03/19 00:35:04;274563.00;0.92;474.19;0.00;0.00;0.62;;;;;6.50;3.40;;;;;;2265288;61;1200;-87
2022/03/19 00:37:32;487076.00;1.62;839.58;0.00;0.00;0.62;;;;;6.50;3.70;;;;;;2265359;61;1041;-87
2022/03/19 00:40:02;515417.00;1.72;888.37;0.00;0.00;0.62;;;;;6.60;2.80;;;;;;2265233;61;1522;-86
2022/03/19 00:44:58;916758.00;3.06;1585.57;40056.00;0.13;69.99;;;;;6.70;3.10;;;;;;2262026;61;1305;-88
2022/03/19 00:47:25;470173.00;1.57;810.49;0.00;0.00;0.62;;;;;6.90;3.10;;;;;;2260631;61;1697;-85
2022/03/19 00:49:52;563397.00;1.88;971.06;0.00;0.00;0.62;;;;;7.00;1.00;;;;;;2271733;56;3793;-87
2022/03/19 00:52:19;496731.00;1.66;856.20;0.00;0.00;0.62;;;;;6.80;2.10;;;;;;2264323;61;2061;-86
2022/03/19 00:54:46;767444.00;2.56;1324.40;54067.00;0.18;94.22;;;;;6.70;2.70;;;;;;2264568;61;1839;-89
2022/03/19 00:57:14;383622.00;1.28;661.65;0.00;0.00;0.62;;;;;6.60;3.70;;;;;;2264599;61;965;-87
2022/03/19 00:59:41;357040.00;1.19;615.96;43042.00;0.14;75.15;;;;;6.50;3.20;;;;;;2264554;61;943;-87
2022/03/19 01:02:08;669117.00;2.23;1153.72;16671.00;0.06;29.50;;;;;6.60;1.80;;;;;;2264475;61;1989;-87
2022/03/19 01:07:03;438747.00;1.46;756.43;0.00;0.00;0.62;;;;;6.80;1.70;;;;;;2262274;61;1452;-86
2022/03/19 01:09:30;330114.00;1.10;569.68;0.00;0.00;0.62;;;;;6.90;1.00;;;;;;2276716;40;3625;-87
2022/03/19 01:11:57;313096.00;1.04;540.43;0.00;0.00;0.62;;;;;6.90;1.60;;;;;;2268855;55;3729;-88
2022/03/19 01:14:26;807609.00;2.69;1394.40;118780.00;0.40;205.98;;;;;6.70;1.80;;;;;;2264604;61;995;-89
2022/03/19 01:22:04;816556.00;2.72;1410.01;13989.00;0.05;24.86;;;;;6.70;1.80;;;;;;2260248;61;2002;-88
2022/03/19 01:27:00;594233.00;1.98;1024.26;0.00;0.00;0.62;;;;;6.50;2.30;;;;;;2266421;61;1510;-87
2022/03/19 01:29:29;448415.00;1.49;773.06;0.00;0.00;0.62;;;;;6.60;1.00;;;;;;2291257;41;3792;-86
2022/03/19 01:31:56;695590.00;2.32;1199.59;32041.00;0.11;56.12;;;;;6.70;2.10;;;;;;2264419;61;1750;-86
2022/03/19 01:34:23;351683.00;1.17;606.75;0.00;0.00;0.62;;;;;6.70;1.00;;;;;;2274511;55;3774;-88
2022/03/19 01:41:58;458910.00;1.53;791.11;0.00;0.00;0.62;;;;;6.40;2.00;;;;;;2262213;61;2001;-86
2022/03/19 01:44:25;459486.00;1.53;792.10;0.00;0.00;0.62;;;;;6.30;2.80;;;;;;2279713;40;3588;-87
2022/03/19 01:47:00;352684.00;1.18;608.47;0.00;0.00;0.62;;;;;6.20;2.80;;;;;;2260472;61;1112;-88
2022/03/19 01:49:28;636266.00;2.12;1096.88;0.00;0.00;0.62;;;;;6.10;2.70;;;;;;2260345;61;976;-87
2022/03/19 01:51:55;439234.00;1.46;757.27;0.00;0.00;0.62;;;;;6.00;3.40;;;;;;2260310;61;1728;-88
2022/03/19 01:54:28;284704.00;0.95;491.62;0.00;0.00;0.62;;;;;5.90;3.40;;;;;;2260556;61;923;-88
2022/03/19 01:56:57;438822.00;1.46;756.56;0.00;0.00;0.62;;;;;5.80;4.00;;;;;;2260290;61;957;-86
2022/03/19 01:59:26;557980.00;1.86;961.72;0.00;0.00;0.62;;;;;5.90;4.00;;;;;;2260460;61;1016;-87
2022/03/19 02:01:54;384832.00;1.28;663.73;0.00;0.00;0.62;;;;;6.20;2.70;;;;;;2260246;61;1986;-86
2022/03/19 02:06:52;303019.00;1.01;523.11;0.00;0.00;0.62;;;;;6.00;1.30;;;;;;2262158;61;1631;-90
2022/03/19 02:16:47;451267.00;1.50;777.96;0.00;0.00;0.62;;;;;6.00;1.40;;;;;;2262138;61;1414;-86
2022/03/19 02:21:51;888803.00;2.96;1536.46;2130.00;0.01;4.31;;;;;6.00;2.10;;;;;;2257693;61;1982;-89
2022/03/19 02:27:05;542222.00;1.81;934.55;15186.00;0.05;26.93;;;;;6.00;1.70;;;;;;2252426;61;602;-86
2022/03/19 02:32:07;740420.00;2.47;1277.40;8321.00;0.03;15.04;;;;;6.00;1.70;;;;;;2261739;61;1417;-87
2022/03/19 02:34:35;395557.00;1.32;682.17;0.00;0.00;0.62;;;;;5.90;1.30;;;;;;2260275;61;1297;-86
2022/03/19 02:37:03;1023125.00;3.41;1773.47;6762.00;0.02;12.34;;;;;6.00;1.60;;;;;;2260173;61;1533;-87
2022/03/19 02:42:01;1581432.00;5.27;2797.31;110559.00;0.37;191.79;;;;;6.40;1.00;;;;;;2262613;61;1948;-87
2022/03/19 02:47:01;1592339.00;5.31;2818.11;53223.00;0.18;92.76;;;;;6.20;1.00;;;;;;2287915;55;3650;-87
2022/03/19 02:49:28;448226.00;1.49;772.73;5869.00;0.02;10.79;;;;;6.30;1.00;;;;;;2268083;61;1204;-87
2022/03/19 02:51:57;1309348.00;4.36;2289.22;59543.00;0.20;103.69;;;;;6.00;1.00;;;;;;2268254;61;1132;-86
2022/03/19 02:54:29;1133715.00;3.78;1970.82;184587.00;0.62;319.39;;;;;6.00;1.00;;;;;;2268233;61;1052;-87
2022/03/19 02:56:57;1101151.00;3.67;1912.48;37366.00;0.12;65.33;;;;;5.90;1.00;;;;;;2279196;56;3757;-87
2022/03/19 03:01:57;1320380.00;4.40;2309.45;33447.00;0.11;58.55;;;;;5.90;1.00;;;;;;2274377;55;3649;-87
2022/03/19 03:04:25;758450.00;2.53;1308.75;83430.00;0.28;144.96;;;;;5.80;1.10;;;;;;2264108;61;1578;-87
2022/03/19 03:09:23;1836917.00;6.12;3294.66;128272.00;0.43;222.35;;;;;5.80;1.00;;;;;;2265976;61;1413;-86
2022/03/19 03:11:50;1415170.00;4.72;2484.49;59826.00;0.20;104.18;;;;;5.90;1.00;;;;;;2284789;55;3821;-86
2022/03/19 03:19:21;2280892.00;7.60;4217.95;71474.00;0.24;124.31;;;;;5.90;1.00;;;;;;1556550;56;3771;-87
2022/03/19 03:21:48;1481623.00;4.94;2608.59;151913.00;0.51;263.10;;;;;5.70;1.00;;;;;;2275839;55;3832;-90
2022/03/19 03:31:42;897763.00;2.99;1552.19;0.00;0.00;0.62;;;;;6.00;1.00;;;;;;2262119;61;1086;-87
2022/03/19 03:34:09;688917.00;2.30;1188.02;0.00;0.00;0.62;;;;;5.90;1.00;;;;;;2278978;56;3750;-87
2022/03/19 03:36:38;411804.00;1.37;710.10;0.00;0.00;0.62;;;;;6.00;1.00;;;;;;2263886;61;1694;-87
2022/03/19 03:46:41;124500184.00;415.00;78182408.00;0.00;0.00;0.62;;;;;5.60;1.00;;;;;;2262341;61;1356;-88
2022/03/19 03:59:06;1355591.00;4.52;2374.21;0.00;0.00;0.62;;;;;5.50;1.00;;;;;;2295365;56;3700;-87
2022/03/19 04:06:32;120421928.00;401.41;70741664.00;0.00;0.00;0.62;;;;;5.70;1.00;;;;;;1956180;56;3584;-87
2022/03/19 04:44:01;1730813.00;5.77;3085.45;76717.00;0.26;133.37;;;;;5.40;1.00;;;;;;2272224;40;3501;-86
2022/03/19 04:56:38;1866607.00;6.22;3353.93;79677.00;0.27;138.48;;;;;5.30;1.00;;;;;;2261873;61;1256;-89
2022/03/19 05:01:36;1418221.00;4.73;2490.16;83034.00;0.28;144.28;;;;;5.40;1.00;;;;;;2261610;61;1874;-88
2022/03/19 05:04:03;1818531.00;6.06;3258.12;105467.00;0.35;183.01;;;;;5.40;1.00;;;;;;2270351;56;3788;-87
2022/03/19 05:11:52;1274503.00;4.25;2225.52;136991.00;0.46;237.38;;;;;5.50;1.00;;;;;;2252456;61;1606;-87
2022/03/19 05:16:54;858454.00;2.86;1483.27;147277.00;0.49;255.11;;;;;6.00;1.00;;;;;;2262328;61;1441;-87
2022/03/19 05:19:21;737740.00;2.46;1272.75;119170.00;0.40;206.65;;;;;6.10;1.00;;;;;;2260492;61;984;-88
2022/03/19 05:21:48;512398.00;1.71;883.17;104421.00;0.35;181.20;;;;;6.20;1.00;;;;;;2260322;61;1933;-87
2022/03/19 05:26:43;942390.00;3.14;1630.70;51376.00;0.17;89.57;;;;;5.80;1.00;;;;;;2261919;61;1382;-89
2022/03/19 05:29:11;516059.00;1.72;889.48;0.00;0.00;0.62;;;;;5.60;1.00;;;;;;2268739;40;3566;-87
2022/03/19 05:31:39;531088.00;1.77;915.37;0.00;0.00;0.62;;;;;5.30;1.00;;;;;;2304642;40;3783;-87
2022/03/19 06:07:08;605059.00;2.02;1042.96;98706.00;0.33;171.34;;;;;6.20;1.00;;;;;;1160163;55;3116;-89
2022/03/19 06:17:02;674671.00;2.25;1163.34;0.00;0.00;0.62;;;;;7.20;1.00;;;;;;2269526;40;3484;-88
2022/03/19 06:19:29;430132.00;1.43;741.61;0.00;0.00;0.62;;;;;7.40;1.00;;;;;;2273691;55;4009;-87
2022/03/19 06:29:33;496185.00;1.65;855.26;0.00;0.00;0.62;;;;;8.70;1.00;;;;;;2006218;60;3216;-87
2022/03/19 06:34:36;1155663.00;3.85;2010.26;0.00;0.00;0.62;;;;;9.10;1.00;;;;;;2275022;40;3542;-87
2022/03/19 06:44:40;366639.00;1.22;632.46;0.00;0.00;0.62;;;;;8.50;1.00;;;;;;2262031;61;1416;-87
2022/03/19 06:49:37;286979.00;0.96;495.54;0.00;0.00;0.62;;;;;9.30;1.00;;;;;;2262648;61;1237;-88
2022/03/19 06:52:04;183932.00;0.61;318.26;0.00;0.00;0.62;;;;;9.50;1.00;;;;;;2260971;61;775;-88
2022/03/19 06:54:31;806156.00;2.69;1391.86;64061.00;0.21;111.50;;;;;9.80;1.00;;;;;;2260727;61;2240;-87
2022/03/19 06:56:58;828749.00;2.76;1431.31;14423.00;0.05;25.61;;;;;10.00;1.00;;;;;;2260181;61;1134;-88
2022/03/19 06:59:25;220060.00;0.73;380.45;0.00;0.00;0.62;;;;;10.70;1.00;;;;;;2260145;61;929;-86
2022/03/19 07:01:53;70264.00;0.23;122.22;0.00;0.00;0.62;;;;;11.20;1.00;;;;;;2260286;61;1992;-87
2022/03/19 07:04:20;1580896.00;5.27;2796.28;103737.00;0.35;180.02;;;;;11.00;1.00;;;;;;2260177;61;2306;-87
2022/03/19 07:06:47;1281488.00;4.27;2238.27;53071.00;0.18;92.50;;;;;10.50;1.00;;;;;;2260107;61;1315;-87
2022/03/19 07:09:15;1199689.00;4.00;2089.66;59016.00;0.20;102.78;;;;;10.80;1.00;;;;;;2260244;61;1110;-88
2022/03/19 07:11:42;901920.00;3.01;1559.49;11134.00;0.04;19.91;;;;;11.10;1.00;;;;;;2260040;61;2149;-87
2022/03/19 07:14:10;1390325.00;4.63;2438.39;45272.00;0.15;79.01;;;;;10.60;1.00;;;;;;2260052;61;1618;-87
2022/03/19 07:16:38;1864598.00;6.22;3349.90;136136.00;0.45;235.91;;;;;10.20;1.00;;;;;;2259947;61;1279;-86
2022/03/19 07:19:07;1617973.00;5.39;2867.14;232877.00;0.78;402.50;;;;;9.90;1.00;;;;;;2260106;61;1040;-86
2022/03/19 07:21:34;1580670.00;5.27;2795.85;106032.00;0.35;183.98;;;;;9.70;1.00;;;;;;2260046;61;1251;-86
2022/03/19 07:24:01;118374800.00;394.58;67191752.00;117139928.00;390.47;65108976.00;;;;;9.80;1.00;;;;;;2260016;61;1936;-86
2022/03/19 07:26:28;117606000.00;392.02;65889924.00;90405.00;0.30;157.01;;;;;9.40;1.00;;;;;;2260228;61;1391;-86
2022/03/19 07:28:55;698608.00;2.33;1204.82;81037.00;0.27;140.83;;;;;9.40;1.00;;;;;;2260137;61;1127;-87
2022/03/19 07:31:22;728986.00;2.43;1257.54;238827.00;0.80;412.73;;;;;9.40;1.00;;;;;;2259998;61;1104;-88
2022/03/19 07:33:51;785318.00;2.62;1355.53;75283.00;0.25;130.89;;;;;9.80;1.00;;;;;;2260028;61;1578;-88
2022/03/19 07:36:22;507820.00;1.69;875.29;92759.00;0.31;161.07;;;;;9.80;1.00;;;;;;2260133;61;1278;-87
2022/03/19 07:38:49;661388.00;2.20;1140.34;86117.00;0.29;149.60;;;;;9.70;1.00;;;;;;2275125;40;3640;-87
2022/03/19 07:44:03;1059768.00;3.53;1838.62;53478.00;0.18;93.20;;;;;9.30;1.00;;;;;;2264103;61;1995;-87
2022/03/19 07:54:00;2342814.00;7.81;4353.64;42556.00;0.14;74.31;;;;;10.40;1.00;;;;;;813084;56;3620;-86
2022/03/19 07:56:27;1454169.00;4.85;2557.17;112405.00;0.37;194.98;;;;;10.40;1.00;;;;;;2293057;40;3652;-88
2022/03/19 07:58:54;834853.00;2.78;1441.98;86968.00;0.29;151.07;;;;;10.10;1.00;;;;;;2272729;55;3793;-88
2022/03/19 08:01:21;1056832.00;3.52;1833.39;71126.00;0.24;123.71;;;;;9.90;1.00;;;;;;2264065;61;1172;-85
2022/03/19 08:03:49;1652814.00;5.51;2934.11;130574.00;0.44;226.32;;;;;9.90;1.00;;;;;;2264062;61;2001;-88
2022/03/19 08:06:16;1521909.00;5.07;2684.41;172557.00;0.58;298.67;;;;;9.80;1.00;;;;;;2263982;61;1302;-86
2022/03/19 08:08:43;1296879.00;4.32;2266.39;137526.00;0.46;238.31;;;;;9.60;1.00;;;;;;2264109;61;1037;-88
2022/03/19 08:11:14;2067824.00;6.89;3764.53;305275.00;1.02;526.99;;;;;10.10;1.00;;;;;;2263976;61;988;-87
2022/03/19 08:13:41;867005.00;2.89;1498.24;85153.00;0.28;147.94;;;;;10.20;1.00;;;;;;2263878;61;1615;-87
2022/03/19 08:16:09;639597.00;2.13;1102.64;121163.00;0.40;210.09;;;;;10.40;1.00;;;;;;2263989;61;1573;-88
2022/03/19 08:18:36;365034.00;1.22;629.70;96429.00;0.32;167.41;;;;;10.80;1.00;;;;;;2264043;61;1514;-86
2022/03/19 08:21:03;463002.00;1.54;798.15;105997.00;0.35;183.92;;;;;10.50;1.00;;;;;;2263924;61;1802;-86
2022/03/19 08:23:30;220620.00;0.74;381.41;0.00;0.00;0.62;;;;;10.20;1.00;;;;;;2263682;61;2022;-87
2022/03/19 08:25:57;117435256.00;391.45;65603120.00;117148896.00;390.50;65123940.00;;;;;10.40;1.00;;;;;;2263946;61;1436;-85
2022/03/19 08:28:26;194221.00;0.65;335.98;0.00;0.00;0.62;;;;;10.40;1.00;;;;;;2264026;61;1037;-86
2022/03/19 08:30:53;567461.00;1.89;978.07;0.00;0.00;0.62;;;;;9.80;1.00;;;;;;2263854;61;1544;-85
2022/03/19 08:33:20;165082.00;0.55;285.79;0.00;0.00;0.62;;;;;9.80;1.00;;;;;;2264085;61;1071;-85
2022/03/19 08:35:47;373858.00;1.25;644.87;83050.00;0.28;144.31;;;;;10.20;1.00;;;;;;2264081;61;1353;-86
2022/03/19 08:41:00;258266.00;0.86;446.17;101635.00;0.34;176.39;;;;;9.70;1.00;;;;;;2259311;61;1036;-83
2022/03/19 08:43:28;208274.00;0.69;360.16;0.00;0.00;0.62;;;;;9.60;1.00;;;;;;2264043;61;2003;-85
2022/03/19 08:45:55;245400.00;0.82;424.04;0.00;0.00;0.62;;;;;10.20;1.00;;;;;;2264018;61;1339;-85
2022/03/19 08:48:22;157924.00;0.53;273.46;9190.00;0.03;16.55;;;;;10.00;1.00;;;;;;2264550;61;1119;-85
2022/03/19 08:50:49;352319.00;1.17;607.85;0.00;0.00;0.62;;;;;10.00;1.00;;;;;;2264842;61;1149;-85
2022/03/19 08:53:17;608513.00;2.03;1048.92;0.00;0.00;0.62;;;;;10.00;1.00;;;;;;2264774;61;1118;-85
2022/03/19 08:55:45;319928.00;1.07;552.17;73452.00;0.24;127.73;;;;;10.40;1.00;;;;;;2264718;61;1272;-86
2022/03/19 08:58:15;328213.00;1.09;566.41;12745.00;0.04;22.70;;;;;10.70;1.00;;;;;;2264672;61;1066;-85
2022/03/19 09:00:44;285668.00;0.95;493.28;43801.00;0.15;76.46;;;;;10.70;1.00;;;;;;2264806;61;1077;-87
2022/03/19 09:03:12;241695.00;0.81;417.67;14669.00;0.05;26.04;;;;;10.50;1.00;;;;;;2264700;61;1922;-85
2022/03/19 09:05:39;368985.00;1.23;636.49;30512.00;0.10;53.47;;;;;9.90;1.00;;;;;;2264674;61;1403;-86
2022/03/19 09:08:06;307366.00;1.02;530.58;0.00;0.00;0.62;;;;;9.80;1.00;;;;;;2264709;61;1126;-84
2022/03/19 09:10:33;354802.00;1.18;612.11;34841.00;0.12;60.96;;;;;9.50;1.00;;;;;;2264768;61;1235;-86
2022/03/19 09:13:00;250528.00;0.84;432.86;41851.00;0.14;73.09;;;;;9.50;1.00;;;;;;2264638;61;1126;-85
2022/03/19 09:15:28;354051.00;1.18;610.82;0.00;0.00;0.62;;;;;9.20;1.00;;;;;;2264590;61;1277;-86
2022/03/19 09:17:56;350766.00;1.17;605.18;35280.00;0.12;61.72;;;;;9.30;1.00;;;;;;2264649;61;1513;-84
2022/03/19 09:20:24;192262.00;0.64;332.60;0.00;0.00;0.62;;;;;9.50;1.00;;;;;;2264758;61;1150;-85
2022/03/19 09:22:50;627808.00;2.09;1082.26;97744.00;0.33;169.68;;;;;9.80;1.00;;;;;;2264223;61;1910;-84
2022/03/19 09:25:18;77815.00;0.26;135.26;0.00;0.00;0.62;;;;;9.50;1.00;;;;;;2264662;61;1332;-85
2022/03/19 09:27:45;321397.00;1.07;554.70;0.00;0.00;0.62;;;;;9.60;1.00;;;;;;2264628;61;1055;-85
2022/03/19 09:30:13;109232.00;0.36;189.50;0.00;0.00;0.62;;;;;9.90;1.00;;;;;;2264706;61;1164;-84
2022/03/19 09:32:40;98326.00;0.33;170.68;0.00;0.00;0.62;;;;;10.10;1.00;;;;;;2264665;61;1040;-85
2022/03/19 09:35:09;1204934.00;4.02;2099.14;79716.00;0.27;138.55;;;;;10.60;1.00;;;;;;2264635;61;1353;-86
2022/03/19 09:37:36;1476758.00;4.92;2599.46;156471.00;0.52;270.96;;;;;10.60;1.00;;;;;;2264642;61;1087;-85
2022/03/19 09:40:03;917829.00;3.06;1587.46;67702.00;0.23;117.79;;;;;10.20;1.00;;;;;;2264519;61;1106;-86
2022/03/19 09:42:32;1423921.00;4.75;2500.76;83542.00;0.28;145.16;;;;;10.10;1.00;;;;;;2264654;61;1916;-84
2022/03/19 09:45:00;1353523.00;4.51;2370.40;55465.00;0.18;96.64;;;;;9.70;1.00;;;;;;2264647;61;1408;-87
2022/03/19 09:47:27;1970455.00;6.57;3563.83;251791.00;0.84;435.03;;;;;9.70;1.00;;;;;;2264659;61;1036;-85
2022/03/19 09:49:54;1389235.00;4.63;2436.37;133346.00;0.44;231.10;;;;;9.80;1.00;;;;;;2264609;61;1147;-86
2022/03/19 09:52:29;788029.00;2.63;1360.25;92710.00;0.31;160.99;;;;;10.10;1.00;;;;;;2264577;61;1103;-86
2022/03/19 09:55:01;712609.00;2.38;1229.11;98745.00;0.33;171.41;;;;;10.60;1.00;;;;;;2264582;61;1575;-86
2022/03/19 09:57:28;257723.00;0.86;445.23;13413.00;0.04;23.86;;;;;10.50;1.00;;;;;;2264446;61;1713;-84
2022/03/19 09:59:54;264849.00;0.88;457.49;46863.00;0.16;81.76;;;;;10.20;1.00;;;;;;2264278;61;1124;-83
2022/03/19 10:02:22;296351.00;0.99;511.65;28830.00;0.10;50.56;;;;;9.90;1.00;;;;;;2264559;61;1076;-86
2022/03/19 10:04:52;332572.00;1.11;573.91;33499.00;0.11;58.64;;;;;10.00;1.00;;;;;;2264536;61;2001;-85
2022/03/19 10:10:11;113591.00;0.38;197.03;0.00;0.00;0.62;;;;;10.30;1.00;;;;;;2271202;61;674;-85
2022/03/19 10:12:40;1424431.00;4.75;2501.71;111565.00;0.37;193.53;;;;;10.70;1.00;;;;;;2260474;61;1769;-85
2022/03/19 10:15:09;435424.00;1.45;750.71;95969.00;0.32;166.61;;;;;10.60;1.00;;;;;;2260512;61;1308;-85
2022/03/19 10:17:37;61393.00;0.20;106.88;0.00;0.00;0.62;;;;;10.30;1.00;;;;;;2260417;61;1235;-85
2022/03/19 10:20:07;101768.00;0.34;176.62;0.00;0.00;0.62;;;;;10.30;1.00;;;;;;2263807;61;1672;-84
2022/03/19 10:22:35;232755.00;0.78;402.29;0.00;0.00;0.62;;;;;10.30;1.00;;;;;;2264383;61;2001;-85
2022/03/19 10:25:04;138972.00;0.46;240.80;0.00;0.00;0.62;;;;;10.60;1.00;;;;;;2264423;61;1380;-84
2022/03/19 10:27:34;1679462.00;5.60;2985.59;156917.00;0.52;271.73;;;;;10.60;1.00;;;;;;2264394;61;1035;-85
2022/03/19 10:30:11;1224548.00;4.08;2134.67;164851.00;0.55;285.40;;;;;10.70;1.00;;;;;;2264206;61;1128;-84
2022/03/19 10:32:40;1057237.00;3.52;1834.11;7928.00;0.03;14.36;;;;;10.40;1.00;;;;;;2264124;61;1908;-86
2022/03/19 10:35:25;142836.00;0.48;247.46;0.00;0.00;0.62;;;;;10.50;1.00;;;;;;2264328;61;1725;-85
2022/03/19 10:37:54;106857.00;0.36;185.41;0.00;0.00;0.62;;;;;10.90;1.00;;;;;;2264404;61;1110;-85
2022/03/19 10:40:22;205008.00;0.68;354.54;0.00;0.00;0.62;;;;;10.60;1.00;;;;;;2264486;61;953;-86
2022/03/19 10:42:51;411944.00;1.37;710.34;0.00;0.00;0.62;;;;;10.80;1.00;;;;;;2264376;61;1999;-86
2022/03/19 10:45:22;183080.00;0.61;316.79;19267.00;0.06;34.00;;;;;10.90;1.00;;;;;;2264443;61;1337;-85
2022/03/19 10:47:49;666918.00;2.22;1149.92;73393.00;0.24;127.62;;;;;11.00;1.00;;;;;;2264355;61;1774;-85
2022/03/19 10:50:20;1914153.00;6.38;3449.52;108060.00;0.36;187.48;;;;;10.80;1.00;;;;;;2264444;61;1107;-88
2022/03/19 10:52:48;1569435.00;5.23;2774.47;134426.00;0.45;232.96;;;;;10.70;1.00;;;;;;2264355;61;971;-85
2022/03/19 10:55:18;1193957.00;3.98;2079.30;232180.00;0.77;401.30;;;;;10.70;1.00;;;;;;2264312;61;1336;-85
2022/03/19 10:57:46;636022.00;2.12;1096.46;124198.00;0.41;215.32;;;;;10.40;1.00;;;;;;2264396;61;1707;-85
2022/03/19 11:00:14;692577.00;2.31;1194.37;95715.00;0.32;166.17;;;;;10.60;1.00;;;;;;2264354;61;1015;-83
2022/03/19 11:02:45;729069.00;2.43;1257.69;161582.00;0.54;279.76;;;;;10.50;1.00;;;;;;2264399;61;1080;-85
2022/03/19 11:05:12;493844.00;1.65;851.23;79440.00;0.26;138.07;;;;;10.50;1.00;;;;;;2264304;61;1335;-86
2022/03/19 11:07:43;313816.00;1.05;541.67;93016.00;0.31;161.52;;;;;10.50;1.00;;;;;;2264377;61;1046;-85
2022/03/19 11:10:11;659689.00;2.20;1137.40;128191.00;0.43;222.21;;;;;10.80;1.00;;;;;;2264142;61;1755;-85
2022/03/19 11:12:44;405979.00;1.35;700.08;49039.00;0.16;85.52;;;;;10.60;1.00;;;;;;2264330;61;1042;-84
2022/03/19 11:15:12;112881.00;0.38;195.80;0.00;0.00;0.62;;;;;11.10;1.00;;;;;;2264200;61;1666;-85
2022/03/19 11:17:41;63730.00;0.21;110.92;0.00;0.00;0.62;;;;;10.90;1.00;;;;;;2260190;61;1580;-85
2022/03/19 11:20:11;348566.00;1.16;601.40;0.00;0.00;0.62;;;;;10.80;1.00;;;;;;2260224;61;1130;-86
2022/03/19 11:22:41;286159.00;0.95;494.13;0.00;0.00;0.62;;;;;11.00;1.00;;;;;;2260240;61;1043;-85
2022/03/19 11:25:23;106579.00;0.36;184.93;0.00;0.00;0.62;;;;;11.20;1.00;;;;;;2260241;61;1959;-86
2022/03/19 11:27:53;168123.00;0.56;291.03;0.00;0.00;0.62;;;;;11.20;1.00;;;;;;2260310;61;1121;-84
2022/03/19 11:30:24;994672.00;3.32;1723.04;203320.00;0.68;351.64;;;;;11.30;1.00;;;;;;2260334;61;1055;-84
2022/03/19 11:33:08;265019.00;0.88;457.78;0.00;0.00;0.62;;;;;11.30;1.00;;;;;;2260325;61;1021;-84
2022/03/19 11:35:38;80795.00;0.27;140.41;0.00;0.00;0.62;;;;;11.50;1.00;;;;;;2260211;61;2054;-85
2022/03/19 11:38:11;132554.00;0.44;229.73;0.00;0.00;0.62;;;;;11.50;1.00;;;;;;2260325;61;1059;-85
2022/03/19 11:40:45;435162.00;1.45;750.26;38366.00;0.13;67.06;;;;;11.50;1.00;;;;;;2260245;61;1007;-85
2022/03/19 11:43:18;223613.00;0.75;386.56;0.00;0.00;0.62;;;;;11.40;1.00;;;;;;2260195;61;1994;-86
2022/03/19 11:45:57;217997.00;0.73;376.90;0.00;0.00;0.62;;;;;11.40;1.00;;;;;;2260158;61;1725;-87
2022/03/19 11:48:43;278828.00;0.93;481.52;0.00;0.00;0.62;;;;;11.40;1.00;;;;;;2260175;61;1150;-86
2022/03/19 11:51:17;319418.00;1.06;551.30;0.00;0.00;0.62;;;;;11.70;1.00;;;;;;2260215;61;1145;-85
2022/03/19 11:53:51;538369.00;1.79;927.91;0.00;0.00;0.62;;;;;11.80;1.00;;;;;;2260259;61;1581;-85
2022/03/19 11:56:19;676618.00;2.26;1166.71;14035.00;0.05;24.94;;;;;12.00;1.00;;;;;;2260225;61;1364;-85
2022/03/19 11:58:48;382612.00;1.28;659.92;0.00;0.00;0.62;;;;;11.80;1.00;;;;;;2260191;61;1033;-84
2022/03/19 12:01:15;331752.00;1.11;572.50;0.00;0.00;0.62;;;;;11.80;1.00;;;;;;2260123;61;1751;-86
2022/03/19 12:04:12;311906.00;1.04;538.39;0.00;0.00;0.62;;;;;11.80;1.00;;;;;;2260005;61;1998;-83
2022/03/19 12:06:40;499125.00;1.66;860.32;68430.00;0.23;119.05;;;;;12.20;1.00;;;;;;2260026;61;1799;-85
2022/03/19 12:09:08;620661.00;2.07;1069.91;89590.00;0.30;155.60;;;;;12.20;1.00;;;;;;2260012;61;1088;-86
2022/03/19 12:11:36;16047.00;0.05;28.42;0.00;0.00;0.62;;;;;11.80;1.00;;;;;;2260152;61;1093;-85
2022/03/19 12:14:13;387590.00;1.29;668.47;87645.00;0.29;152.24;;;;;11.80;1.00;;;;;;2260211;61;1109;-86
2022/03/19 12:16:41;548820.00;1.83;945.93;76047.00;0.25;132.21;;;;;11.70;1.00;;;;;;2260187;61;1487;-86
2022/03/19 12:19:09;78207.00;0.26;135.94;0.00;0.00;0.62;;;;;11.80;1.00;;;;;;2260085;61;947;-85
2022/03/19 12:21:38;44065.00;0.15;76.92;0.00;0.00;0.62;;;;;11.70;1.00;;;;;;2260011;61;1064;-85
2022/03/19 12:24:27;87011.00;0.29;151.15;0.00;0.00;0.62;;;;;11.90;1.00;;;;;;2260120;61;1918;-86
2022/03/19 12:26:55;39807.00;0.13;69.55;0.00;0.00;0.62;;;;;11.70;1.00;;;;;;2260067;61;1399;-87
2022/03/19 12:29:31;150281.00;0.50;260.29;0.00;0.00;0.62;;;;;11.80;1.00;;;;;;2260082;61;909;-86
2022/03/19 12:31:58;103737.00;0.35;180.02;0.00;0.00;0.62;;;;;11.90;1.00;;;;;;2260211;61;1051;-86
2022/03/19 12:34:26;104900.00;0.35;182.03;0.00;0.00;0.62;;;;;12.10;1.00;;;;;;2260126;61;1177;-87
2022/03/19 12:36:59;154482.00;0.51;267.53;0.00;0.00;0.62;;;;;12.10;1.00;;;;;;2260136;61;1500;-83
2022/03/19 12:39:26;86192.00;0.29;149.73;0.00;0.00;0.62;;;;;12.10;1.00;;;;;;2260099;61;1066;-85
2022/03/19 12:41:53;157088.00;0.52;272.02;42697.00;0.14;74.55;;;;;11.80;1.00;;;;;;2260141;61;1007;-86
2022/03/19 12:44:24;260470.00;0.87;449.96;0.00;0.00;0.62;;;;;11.80;1.00;;;;;;2260076;61;1906;-85
2022/03/19 12:46:57;209998.00;0.70;363.13;0.00;0.00;0.62;;;;;12.10;1.00;;;;;;2260035;61;1345;-85
2022/03/19 12:49:25;181525.00;0.61;314.12;0.00;0.00;0.62;;;;;12.40;1.00;;;;;;2260094;61;1099;-85
2022/03/19 12:51:52;11221.00;0.04;20.06;0.00;0.00;0.62;;;;;12.70;1.00;;;;;;2259979;61;1038;-86
2022/03/19 12:54:21;383573.00;1.28;661.57;0.00;0.00;0.62;;;;;12.80;1.00;;;;;;2260077;61;1091;-86
2022/03/19 12:56:48;98497.00;0.33;170.98;0.00;0.00;0.62;;;;;12.40;1.00;;;;;;2260094;61;1333;-84
2022/03/19 12:59:21;148952.00;0.50;258.00;0.00;0.00;0.62;;;;;12.60;1.00;;;;;;2260014;61;1075;-84
2022/03/19 13:01:49;155799.00;0.52;269.80;29131.00;0.10;51.08;;;;;12.60;1.00;;;;;;2260047;61;1119;-84
2022/03/19 13:04:22;200816.00;0.67;347.33;0.00;0.00;0.62;;;;;12.90;1.00;;;;;;2259984;61;2014;-84
2022/03/19 13:06:49;75507.00;0.25;131.28;0.00;0.00;0.62;;;;;12.50;1.00;;;;;;2259960;61;1623;-86
2022/03/19 13:09:16;117795656.00;392.65;66209504.00;0.00;0.00;0.62;;;;;12.20;1.00;;;;;;2260072;61;1049;-85
2022/03/19 13:11:47;281750.00;0.94;486.55;15076.00;0.05;26.74;;;;;12.20;1.00;;;;;;2259986;61;1641;-84
2022/03/19 13:14:14;71394.00;0.24;124.17;0.00;0.00;0.62;;;;;12.20;1.00;;;;;;2259934;61;991;-86
2022/03/19 13:16:43;235328.00;0.78;406.71;18210.00;0.06;32.17;;;;;12.30;1.00;;;;;;2260042;61;1405;-85
2022/03/19 13:19:12;146103.00;0.49;253.09;38168.00;0.13;66.72;;;;;12.30;1.00;;;;;;2259983;61;1029;-86
2022/03/19 13:21:41;19527.00;0.07;34.45;0.00;0.00;0.62;;;;;12.50;1.00;;;;;;2259853;61;1088;-85
2022/03/19 13:24:11;917855.00;3.06;1587.50;46725.00;0.16;81.52;;;;;12.40;1.00;;;;;;2259960;61;1993;-86
2022/03/19 13:26:38;1274196.00;4.25;2224.96;121141.00;0.40;210.05;;;;;12.40;1.00;;;;;;2259898;61;1659;-84
2022/03/19 13:29:07;2066312.00;6.89;3761.39;254200.00;0.85;439.17;;;;;12.30;1.00;;;;;;2259924;61;1464;-86
2022/03/19 13:31:50;427035.00;1.42;736.29;5753.00;0.02;10.59;;;;;12.50;1.00;;;;;;2259995;61;1009;-86
2022/03/19 13:34:22;487184.00;1.62;839.76;97476.00;0.32;169.21;;;;;12.00;1.00;;;;;;2260383;61;1535;-84
2022/03/19 13:36:52;473221.00;1.58;815.73;86338.00;0.29;149.98;;;;;12.00;1.00;;;;;;2260576;61;1323;-85